Terminal Aerodrome Forecast
Issued by NWS

Home | Current Version | Previous Version | Text Only | Print | Product List | Glossary On
Versions: 1 2 3 4 5 6 7 8 9 10 11 12 13 14
000
FTUS46 KSGX 240500
TAFPSP
TAF
KPSP 240520Z 2406/2506 VRB04KT P6SM FEW250
     FM242300 33010KT P6SM SCT250
     FM250500 VRB05KT P6SM SCT250=

USA.gov is the U.S. government's official web portal to all federal, state and local government web resources and services.